ADDS METAR Data INFO
IDs: Format: Raw Decoded Include TAF

Data at: 1529 UTC 18 Jun 2018

KMGG 181515Z AUTO 04007KT 10SM SCT080 21/17 A3002 RMK AO2 T02120174
KMGG 181455Z AUTO 03005KT 10SM SCT070 BKN085 21/18 A3002 RMK AO2 T02080175
KMGG 181435Z AUTO 02006KT 10SM BKN070 BKN085 20/17 A3002 RMK AO2 T02020173
KMGG 181415Z AUTO 03006KT 10SM SCT037 OVC070 20/17 A3001 RMK AO2 T02000170
KMGG 181355Z AUTO 02008KT 10SM SCT037 SCT048 OVC060 20/17 A3000 RMK AO2 T01990170
KMGG 181335Z AUTO 03007KT 10SM OVC060 20/17 A3000 RMK AO2 T01950172
KMGG 181315Z AUTO 02006KT 10SM OVC050 19/17 A3000 RMK AO2 T01920172
KMGG 181255Z AUTO 02008KT 10SM OVC050 19/17 A3000 RMK AO2 T01900172
KMGG 181235Z AUTO 02007KT 10SM SCT050 OVC055 19/17 A2999 RMK AO2 T01900174
KMGG 181215Z AUTO 02007KT 10SM BKN044 OVC050 19/18 A2999 RMK AO2 T01900175
KMGG 181155Z AUTO 02006KT 10SM BKN040 OVC050 19/18 A2998 RMK AO2 T01880175 10213 20188
KMGG 181135Z AUTO 01005KT 10SM OVC048 19/18 A2997 RMK AO2 T01880177
KMGG 181115Z AUTO 01005KT 10SM OVC046 19/18 A2997 RMK AO2 T01900178
KMGG 181055Z AUTO 36007KT 10SM SCT024 OVC046 19/18 A2996 RMK AO2 T01900180
KMGG 181035Z AUTO 01005KT 10SM SCT024 SCT042 OVC048 19/18 A2995 RMK AO2 T01900180
KMGG 181015Z AUTO 02005KT 10SM DZ OVC048 19/18 A2995 RMK AO2 T01900182
KMGG 180955Z AUTO 01005KT 10SM SCT020 OVC046 19/18 A2995 RMK AO2 T01900182
KMGG 180935Z AUTO 36007KT 10SM BKN016 OVC023 19/18 A2994 RMK AO2 T01910183
KMGG 180915Z AUTO 01006KT 10SM RA BKN010 OVC014 19/19 A2994 RMK AO2 T01920185
KMGG 180855Z AUTO 36009KT 10SM -RA OVC008 19/19 A2994 RMK AO2 T01920185
KMGG 180835Z AUTO 35007KT 10SM OVC008 19/19 A2993 RMK AO2 LTG DSNT E T01940186
KMGG 180815Z AUTO 35008KT 7SM -RA OVC008 20/19 A2992 RMK AO2 LTG DSNT E T01980190
KMGG 180755Z AUTO 35006KT 10SM OVC008 20/19 A2992 RMK AO2 LTG DSNT SE T02010192
KMGG 180735Z AUTO 36008KT 10SM OVC008 21/20 A2991 RMK AO2 LTG DSNT SE T02050195
KMGG 180715Z AUTO 36005KT 10SM OVC010 21/20 A2991 RMK AO2 LTG DSNT SE T02070198
KMGG 180655Z AUTO 01007KT 10SM VCTS BKN010 OVC055 21/20 A2990 RMK AO2 LTG DSNT SE T02090200
KMGG 180635Z AUTO 36008KT 10SM BKN010 BKN013 OVC055 21/20 A2990 RMK AO2 LTG DSNT SE T02100201
KMGG 180615Z AUTO 36008KT 10SM BKN010 OVC013 21/21 A2991 RMK AO2 LTG DSNT SE T02120205
KMGG 180555Z AUTO 36006KT 10SM OVC010 21/21 A2991 RMK AO2 T02130206 10268 20213
KMGG 180535Z AUTO 01007KT 7SM -RA BKN010 OVC016 22/21 A2990 RMK AO2 LTG DSNT S T02150210
KMGG 180515Z AUTO 36008KT 7SM -RA BKN007 OVC013 22/21 A2990 RMK AO2 T02160210
KMGG 180455Z AUTO 35007KT 4SM +RA OVC007 22/21 A2991 RMK AO2 LTG DSNT SW T02190211
KMGG 180435Z AUTO 35006KT 7SM -RA OVC005 22/21 A2990 RMK AO2 LTG DSNT SE THRU SW T02210213
KMGG 180415Z AUTO 02008KT 4SM RA BKN005 BKN011 23/22 A2989 RMK AO2 LTG DSNT S T02250215
KMGG 180355Z AUTO 35003KT 5SM RA BKN013 BKN018 OVC048 23/22 A2990 RMK AO2 LTG DSNT S T02310221 403100220
KMGG 180335Z AUTO 01003KT 7SM RA SCT017 SCT026 BKN048 23/22 A2989 RMK AO2 LTG DSNT SW AND W T02330220
KMGG 180315Z AUTO 02004KT 10SM -RA SCT020 BKN048 OVC065 24/22 A2987 RMK AO2 LTG DSNT W T02350221
KMGG 180255Z AUTO 05005KT 10SM -DZ BKN016 BKN024 BKN042 24/22 A2987 RMK AO2 LTG DSNT SE THRU W T02350220
KMGG 180235Z AUTO 00000KT 10SM -RA SCT014 SCT035 BKN055 24/22 A2987 RMK AO2 LTG DSNT SE T02380222
KMGG 180215Z AUTO 00000KT 10SM -RA SCT042 OVC060 25/22 A2987 RMK AO2 T02450216
KMGG 180155Z AUTO 02004KT 10SM SCT042 BKN050 OVC100 25/21 A2986 RMK AO2 LTG DSNT W T02500214
KMGG 180135Z AUTO 02005KT 10SM BKN042 BKN055 OVC100 25/21 A2986 RMK AO2 T02520212
KMGG 180115Z AUTO 36005KT 10SM SCT030 BKN040 OVC055 26/22 A2986 RMK AO2 T02560215
KMGG 180055Z AUTO 02005KT 10SM SCT025 BKN036 BKN085 26/22 A2985 RMK AO2 LTG DSNT SE T02610216
KMGG 180035Z AUTO 36006KT 10SM SCT025 SCT036 BKN055 26/22 A2984 RMK AO2 LTG DSNT SE T02620215
KMGG 180015Z AUTO 35009KT 10SM BKN036 OVC055 26/22 A2984 RMK AO2 T02620215
KMGG 172355Z AUTO 01007KT 10SM SCT033 OVC038 27/22 A2983 RMK AO2 T02680217 10310 20266
KMGG 172335Z AUTO 35008KT 10SM SCT040 SCT070 27/22 A2983 RMK AO2 T02710221
KMGG 172315Z AUTO 35007KT 10SM SCT120 28/23 A2983 RMK AO2 LTG DSNT E T02800226
KMGG 172255Z AUTO 34008KT 10SM SCT120 29/23 A2982 RMK AO2 T02850229
KMGG 172235Z AUTO 33011KT 10SM SCT120 28/23 A2982 RMK AO2 LTG DSNT E AND S T02780232
KMGG 172215Z AUTO 30009G15KT 10SM SCT070 29/23 A2981 RMK AO2 LTG DSNT E AND SE T02910228
KMGG 172155Z AUTO 32009G16KT 10SM CLR 30/24 A2981 RMK AO2 LTG DSNT E T02960236
KMGG 172135Z AUTO 31009G14KT 10SM SCT026 SCT033 SCT048 30/24 A2980 RMK AO2 LTG DSNT NE AND E T02950239
KMGG 172115Z AUTO 29008G14KT 7SM RA SCT026 BKN032 BKN038 28/23 A2980 RMK AO2 LTG DSNT NE AND E T02800232
KMGG 172055Z AUTO 27010G15KT 240V300 10SM VCTS SCT034 SCT041 SCT050 30/23 A2980 RMK AO2 LTG DSNT NE E AND SW T02980233
KMGG 172035Z AUTO 26007G15KT 10SM SCT034 SCT046 SCT120 30/23 A2980 RMK AO2 LTG DSNT E T02960229
KMGG 172015Z AUTO 26009KT 10SM SCT034 BKN046 BKN055 30/24 A2980 RMK AO2 LTG DSNT NE AND E T03040235
KMGG 171955Z AUTO 24011G16KT 10SM SCT034 SCT044 BKN050 31/24 A2980 RMK AO2 LTG DSNT E AND SE T03070235
KMGG 171935Z AUTO 25006KT 10SM SCT032 BKN041 BKN050 30/24 A2978 RMK AO2 T03030239
KMGG 171915Z AUTO 24007KT 10SM SCT034 BKN041 BKN048 31/24 A2978 RMK AO2 T03060237
KMGG 171855Z AUTO 21003KT 10SM SCT031 SCT040 SCT049 31/24 A2978 RMK AO2 LTG DSNT S T03050240
KMGG 171835Z AUTO 20004KT 10SM SCT033 BKN042 BKN049 30/24 A2980 RMK AO2 LTG DSNT N AND S T03030240
KMGG 171815Z AUTO 19004KT 10SM SCT046 SCT050 31/24 A2980 RMK AO2 LTG DSNT N T03100240
KMGG 171755Z AUTO 18003KT 10SM BKN046 30/24 A2980 RMK AO2 T03030240 10305 20231
KMGG 171735Z AUTO 18004KT 10SM SCT028 SCT037 SCT047 30/24 A2980 RMK AO2 T03000239
KMGG 171715Z AUTO 19004KT 10SM BKN028 BKN037 BKN047 29/23 A2981 RMK AO2 LTG DSNT N AND W T02940233
KMGG 171655Z AUTO 20006KT 170V230 10SM SCT027 30/24 A2980 RMK AO2 LTG DSNT W T02970238
KMGG 171635Z AUTO 17006KT 10SM CLR 29/24 A2980 RMK AO2 LTG DSNT N T02900239
KMGG 171615Z AUTO 18007KT 10SM CLR 29/24 A2980 RMK AO2 T02910239
KMGG 171555Z AUTO 17006KT 10SM CLR 29/24 A2980 RMK AO2 T02890238
KMGG 171535Z AUTO 17006KT 10SM CLR 28/24 A2980 RMK AO2 T02800236
KMGG 171515Z AUTO 17005KT 10SM CLR 29/24 A2979 RMK AO2 LTG DSNT W T02870236
KMGG 171455Z AUTO 16006KT 10SM CLR 28/24 A2980 RMK AO2 T02780237
KMGG 171435Z AUTO 15005KT 10SM CLR 27/23 A2980 RMK AO2 T02710230
KMGG 171415Z AUTO 18006KT 10SM SCT080 27/23 A2980 RMK AO2 T02660227
KMGG 171355Z AUTO 18005KT 10SM SCT080 26/23 A2980 RMK AO2 T02620225
KMGG 171335Z AUTO 17004KT 10SM CLR 26/23 A2981 RMK AO2 T02600225
KMGG 171315Z AUTO 16004KT 10SM CLR 26/23 A2981 RMK AO2 T02560225
KMGG 171255Z AUTO 15003KT 10SM CLR 25/22 A2980 RMK AO2 LTG DSNT NE T02500222
KMGG 171235Z AUTO 00000KT 10SM CLR 24/22 A2980 RMK AO2 T02440220
KMGG 171215Z AUTO 13003KT 10SM SCT100 24/22 A2980 RMK AO2 T02370218
KMGG 171155Z AUTO 13003KT 10SM SCT075 BKN090 23/22 A2980 RMK AO2 LTG DSNT SE T02300215 10290 20220
KMGG 171135Z AUTO 12003KT 10SM SCT090 23/21 A2980 RMK AO2 T02260213
KMGG 171115Z AUTO 12003KT 10SM SCT090 SCT110 22/21 A2978 RMK AO2 T02240210
KMGG 171055Z AUTO 13003KT 10SM SCT095 22/21 A2978 RMK AO2 T02230210
KMGG 171035Z AUTO 12004KT 10SM SCT095 22/21 A2978 RMK AO2 T02210209
KMGG 171015Z AUTO 00000KT 10SM SCT095 22/21 A2979 RMK AO2 T02200206
KMGG 170955Z AUTO 00000KT 10SM SCT085 SCT110 22/21 A2978 RMK AO2 T02210206
KMGG 170935Z AUTO 07004KT 10SM SCT085 22/21 A2978 RMK AO2 LTG DSNT NE T02200205
KMGG 170915Z AUTO 06004KT 10SM SCT085 SCT100 22/20 A2978 RMK AO2 T02200204
KMGG 170856Z AUTO 03003KT 10SM SCT090 22/20 A2978 RMK AO2 T02220203
KMGG 170835Z AUTO 04007KT 10SM VCTS CLR 23/21 A2978 RMK AO2 LTG DSNT N T02320210
KMGG 170815Z AUTO 36005KT 10SM SCT100 26/22 A2977 RMK AO2 LTG DSNT NE T02630216
KMGG 170756Z AUTO 00000KT 10SM BKN085 BKN110 26/22 A2977 RMK AO2 T02580220
KMGG 170735Z AUTO 00000KT 10SM OVC085 26/22 A2977 RMK AO2 LTG DSNT NE T02570220
KMGG 170715Z AUTO 31004KT 10SM OVC085 28/22 A2975 RMK AO2 LTG DSNT N AND NE T02800220
KMGG 170655Z AUTO 00000KT 10SM OVC085 28/22 A2975 RMK AO2 LTG DSNT NE T02830218
KMGG 170635Z AUTO 20007KT 10SM SCT085 BKN100 29/22 A2973 RMK AO2 LTG DSNT N T02850217
KMGG 170615Z AUTO 19007KT 10SM SCT085 29/22 A2973 RMK AO2 LTG DSNT NE AND NW T02870218
KMGG 170555Z AUTO 20007KT 170V240 10SM CLR 29/22 A2975 RMK AO2 LTG DSNT W AND NW T02900219 10290 20259
KMGG 170535Z AUTO 19005KT 10SM CLR 29/22 A2976 RMK AO2 LTG DSNT NW THRU NE T02900220
KMGG 170515Z AUTO 20007KT 150V230 10SM CLR 29/22 A2975 RMK AO2 LTG DSNT N AND NW T02880223
KMGG 170456Z AUTO 19005KT 10SM VCTS CLR 28/23 A2972 RMK AO2 LTG DSNT N AND NW T02820226
KMGG 170435Z AUTO 19006KT 10SM CLR 28/23 A2970 RMK AO2 LTG DSNT W THRU NE T02820228
KMGG 170415Z AUTO 19008G15KT 150V230 10SM CLR 29/23 A2968 RMK AO2 LTG DSNT W THRU N T02850230
KMGG 170355Z AUTO 19006KT 10SM SCT075 SCT090 28/23 A2968 RMK AO2 LTG DSNT N AND W T02780234 403050206
KMGG 170335Z AUTO 19009G15KT 10SM -DZ SCT100 28/24 A2969 RMK AO2 LTG DSNT W THRU NE T02800235